sensor_id;sensor_type;location;lat;lon;timestamp;P1;durP1;ratioP1;P2;durP2;ratioP2
69979;SDS011;57318;56.232;43.944;2022-12-07T00:01:06;12.63;;;5.77;;
69979;SDS011;57318;56.232;43.944;2022-12-07T00:03:33;13.93;;;5.43;;
69979;SDS011;57318;56.232;43.944;2022-12-07T00:06:00;10.70;;;5.23;;
69979;SDS011;57318;56.232;43.944;2022-12-07T00:08:27;9.73;;;4.63;;
69979;SDS011;57318;56.232;43.944;2022-12-07T00:10:52;11.00;;;5.07;;
69979;SDS011;57318;56.232;43.944;2022-12-07T00:13:18;10.35;;;4.78;;
69979;SDS011;57318;56.232;43.944;2022-12-07T00:15:44;10.05;;;5.40;;
69979;SDS011;57318;56.232;43.944;2022-12-07T00:18:10;9.52;;;5.30;;
69979;SDS011;57318;56.232;43.944;2022-12-07T00:20:35;10.05;;;4.88;;
69979;SDS011;57318;56.232;43.944;2022-12-07T00:23:01;13.43;;;5.35;;
69979;SDS011;57318;56.232;43.944;2022-12-07T00:25:27;8.35;;;4.38;;
69979;SDS011;57318;56.232;43.944;2022-12-07T00:27:52;15.98;;;5.75;;
69979;SDS011;57318;56.232;43.944;2022-12-07T00:30:20;9.53;;;5.07;;
69979;SDS011;57318;56.232;43.944;2022-12-07T00:35:12;8.43;;;3.23;;
69979;SDS011;57318;56.232;43.944;2022-12-07T00:37:38;10.52;;;5.13;;
69979;SDS011;57318;56.232;43.944;2022-12-07T00:40:04;12.98;;;4.88;;
69979;SDS011;57318;56.232;43.944;2022-12-07T00:42:30;12.13;;;5.30;;
69979;SDS011;57318;56.232;43.944;2022-12-07T00:44:56;12.73;;;5.95;;
69979;SDS011;57318;56.232;43.944;2022-12-07T00:47:21;9.18;;;4.32;;
69979;SDS011;57318;56.232;43.944;2022-12-07T00:49:47;12.10;;;5.60;;
69979;SDS011;57318;56.232;43.944;2022-12-07T00:52:12;10.38;;;5.30;;
69979;SDS011;57318;56.232;43.944;2022-12-07T00:54:39;9.23;;;4.63;;
69979;SDS011;57318;56.232;43.944;2022-12-07T00:57:05;11.50;;;5.47;;
69979;SDS011;57318;56.232;43.944;2022-12-07T00:59:30;13.48;;;5.88;;
69979;SDS011;57318;56.232;43.944;2022-12-07T01:01:56;10.35;;;4.72;;
69979;SDS011;57318;56.232;43.944;2022-12-07T01:04:22;11.65;;;5.72;;
69979;SDS011;57318;56.232;43.944;2022-12-07T01:06:47;11.48;;;5.70;;
69979;SDS011;57318;56.232;43.944;2022-12-07T01:09:13;13.57;;;6.15;;
69979;SDS011;57318;56.232;43.944;2022-12-07T01:11:38;14.80;;;6.07;;
69979;SDS011;57318;56.232;43.944;2022-12-07T01:14:04;10.68;;;5.40;;
69979;SDS011;57318;56.232;43.944;2022-12-07T01:16:30;10.60;;;4.65;;
69979;SDS011;57318;56.232;43.944;2022-12-07T01:18:57;12.10;;;5.10;;
69979;SDS011;57318;56.232;43.944;2022-12-07T01:21:26;10.73;;;4.93;;
69979;SDS011;57318;56.232;43.944;2022-12-07T01:23:53;9.03;;;4.73;;
69979;SDS011;57318;56.232;43.944;2022-12-07T01:26:22;10.20;;;4.88;;
69979;SDS011;57318;56.232;43.944;2022-12-07T01:28:49;9.17;;;4.63;;
69979;SDS011;57318;56.232;43.944;2022-12-07T01:31:17;15.55;;;6.55;;
69979;SDS011;57318;56.232;43.944;2022-12-07T01:33:45;12.23;;;5.33;;
69979;SDS011;57318;56.232;43.944;2022-12-07T01:38:42;11.60;;;5.20;;
69979;SDS011;57318;56.232;43.944;2022-12-07T01:41:09;14.20;;;5.60;;
69979;SDS011;57318;56.232;43.944;2022-12-07T01:43:35;11.87;;;4.87;;
69979;SDS011;57318;56.232;43.944;2022-12-07T01:46:01;11.23;;;4.82;;
69979;SDS011;57318;56.232;43.944;2022-12-07T01:48:34;12.57;;;5.83;;
69979;SDS011;57318;56.232;43.944;2022-12-07T01:51:06;11.33;;;6.13;;
69979;SDS011;57318;56.232;43.944;2022-12-07T01:53:36;10.03;;;4.43;;
69979;SDS011;57318;56.232;43.944;2022-12-07T01:56:07;14.73;;;4.80;;
69979;SDS011;57318;56.232;43.944;2022-12-07T01:58:35;10.93;;;4.87;;
69979;SDS011;57318;56.232;43.944;2022-12-07T02:01:01;10.85;;;5.22;;
69979;SDS011;57318;56.232;43.944;2022-12-07T02:03:34;14.10;;;6.28;;
69979;SDS011;57318;56.232;43.944;2022-12-07T02:06:04;13.57;;;5.90;;
69979;SDS011;57318;56.232;43.944;2022-12-07T02:08:32;10.10;;;4.73;;
69979;SDS011;57318;56.232;43.944;2022-12-07T02:13:24;13.90;;;5.43;;
69979;SDS011;57318;56.232;43.944;2022-12-07T02:31:51;14.93;;;7.17;;
69979;SDS011;57318;56.232;43.944;2022-12-07T02:34:42;11.93;;;4.87;;
69979;SDS011;57318;56.232;43.944;2022-12-07T02:37:18;15.03;;;5.27;;
69979;SDS011;57318;56.232;43.944;2022-12-07T02:39:52;9.45;;;5.07;;
69979;SDS011;57318;56.232;43.944;2022-12-07T02:42:25;13.37;;;7.00;;
69979;SDS011;57318;56.232;43.944;2022-12-07T02:44:56;13.97;;;5.83;;
69979;SDS011;57318;56.232;43.944;2022-12-07T02:47:23;17.33;;;6.77;;
69979;SDS011;57318;56.232;43.944;2022-12-07T02:49:51;16.20;;;6.10;;
69979;SDS011;57318;56.232;43.944;2022-12-07T02:52:17;12.27;;;5.90;;
69979;SDS011;57318;56.232;43.944;2022-12-07T02:54:43;13.02;;;6.22;;
69979;SDS011;57318;56.232;43.944;2022-12-07T02:57:15;15.20;;;5.95;;
69979;SDS011;57318;56.232;43.944;2022-12-07T02:59:59;11.53;;;5.87;;
69979;SDS011;57318;56.232;43.944;2022-12-07T03:07:56;12.02;;;5.72;;
69979;SDS011;57318;56.232;43.944;2022-12-07T03:18:20;14.90;;;7.67;;
69979;SDS011;57318;56.232;43.944;2022-12-07T03:20:49;12.00;;;5.30;;
69979;SDS011;57318;56.232;43.944;2022-12-07T03:23:18;14.27;;;6.27;;
69979;SDS011;57318;56.232;43.944;2022-12-07T03:25:47;13.17;;;6.60;;
69979;SDS011;57318;56.232;43.944;2022-12-07T03:28:18;16.33;;;6.33;;
69979;SDS011;57318;56.232;43.944;2022-12-07T03:33:44;14.23;;;6.10;;
69979;SDS011;57318;56.232;43.944;2022-12-07T03:39:36;16.30;;;6.77;;
69979;SDS011;57318;56.232;43.944;2022-12-07T03:42:04;16.57;;;6.57;;
69979;SDS011;57318;56.232;43.944;2022-12-07T03:44:32;16.03;;;6.27;;
69979;SDS011;57318;56.232;43.944;2022-12-07T03:47:01;16.00;;;6.50;;
69979;SDS011;57318;56.232;43.944;2022-12-07T03:50:06;16.13;;;6.80;;
69979;SDS011;57318;56.232;43.944;2022-12-07T03:52:42;17.38;;;8.20;;
69979;SDS011;57318;56.232;43.944;2022-12-07T03:55:30;20.73;;;7.43;;
69979;SDS011;57318;56.232;43.944;2022-12-07T03:58:09;16.73;;;8.27;;
69979;SDS011;57318;56.232;43.944;2022-12-07T04:00:37;17.97;;;8.20;;
69979;SDS011;57318;56.232;43.944;2022-12-07T04:03:03;15.25;;;6.32;;
69979;SDS011;57318;56.232;43.944;2022-12-07T04:05:29;17.30;;;7.35;;
69979;SDS011;57318;56.232;43.944;2022-12-07T04:07:55;14.60;;;5.10;;
69979;SDS011;57318;56.232;43.944;2022-12-07T04:10:20;19.08;;;7.78;;
69979;SDS011;57318;56.232;43.944;2022-12-07T04:12:46;16.33;;;8.00;;
69979;SDS011;57318;56.232;43.944;2022-12-07T04:15:12;20.65;;;7.50;;
69979;SDS011;57318;56.232;43.944;2022-12-07T04:17:37;17.77;;;7.68;;
69979;SDS011;57318;56.232;43.944;2022-12-07T04:20:04;23.75;;;8.82;;
69979;SDS011;57318;56.232;43.944;2022-12-07T04:22:30;16.90;;;6.30;;
69979;SDS011;57318;56.232;43.944;2022-12-07T04:24:56;22.00;;;8.27;;
69979;SDS011;57318;56.232;43.944;2022-12-07T04:27:23;20.85;;;8.25;;
69979;SDS011;57318;56.232;43.944;2022-12-07T04:29:52;11.30;;;5.30;;
69979;SDS011;57318;56.232;43.944;2022-12-07T04:32:20;16.73;;;8.67;;
69979;SDS011;57318;56.232;43.944;2022-12-07T04:34:45;20.08;;;6.97;;
69979;SDS011;57318;56.232;43.944;2022-12-07T04:37:11;15.90;;;7.43;;
69979;SDS011;57318;56.232;43.944;2022-12-07T04:39:36;20.73;;;8.23;;
69979;SDS011;57318;56.232;43.944;2022-12-07T04:42:02;15.25;;;6.68;;
69979;SDS011;57318;56.232;43.944;2022-12-07T04:44:29;15.82;;;6.65;;
69979;SDS011;57318;56.232;43.944;2022-12-07T04:46:55;22.57;;;8.83;;
69979;SDS011;57318;56.232;43.944;2022-12-07T04:49:22;18.67;;;7.47;;
69979;SDS011;57318;56.232;43.944;2022-12-07T04:51:48;19.20;;;8.20;;
69979;SDS011;57318;56.232;43.944;2022-12-07T04:54:15;22.60;;;9.33;;
69979;SDS011;57318;56.232;43.944;2022-12-07T04:56:42;16.53;;;7.03;;
69979;SDS011;57318;56.232;43.944;2022-12-07T04:59:09;20.73;;;8.95;;
69979;SDS011;57318;56.232;43.944;2022-12-07T05:01:36;16.30;;;7.37;;
69979;SDS011;57318;56.232;43.944;2022-12-07T05:04:01;16.23;;;7.63;;
69979;SDS011;57318;56.232;43.944;2022-12-07T05:08:53;14.80;;;6.83;;
69979;SDS011;57318;56.232;43.944;2022-12-07T05:11:19;19.52;;;7.45;;
69979;SDS011;57318;56.232;43.944;2022-12-07T05:14:04;18.33;;;7.93;;
69979;SDS011;57318;56.232;43.944;2022-12-07T05:16:33;14.20;;;6.53;;
69979;SDS011;57318;56.232;43.944;2022-12-07T05:18:59;21.33;;;8.77;;
69979;SDS011;57318;56.232;43.944;2022-12-07T05:21:24;17.52;;;7.60;;
69979;SDS011;57318;56.232;43.944;2022-12-07T05:23:50;21.13;;;7.70;;
69979;SDS011;57318;56.232;43.944;2022-12-07T05:26:16;20.42;;;9.02;;
69979;SDS011;57318;56.232;43.944;2022-12-07T05:28:42;20.45;;;8.05;;
69979;SDS011;57318;56.232;43.944;2022-12-07T05:31:08;19.08;;;7.35;;
69979;SDS011;57318;56.232;43.944;2022-12-07T05:33:33;21.65;;;8.45;;
69979;SDS011;57318;56.232;43.944;2022-12-07T05:35:59;17.77;;;8.32;;
69979;SDS011;57318;56.232;43.944;2022-12-07T05:38:30;18.60;;;7.87;;
69979;SDS011;57318;56.232;43.944;2022-12-07T05:40:59;22.40;;;9.70;;
69979;SDS011;57318;56.232;43.944;2022-12-07T05:43:27;19.13;;;6.97;;
69979;SDS011;57318;56.232;43.944;2022-12-07T05:45:53;18.90;;;7.82;;
69979;SDS011;57318;56.232;43.944;2022-12-07T05:48:18;15.23;;;5.15;;
69979;SDS011;57318;56.232;43.944;2022-12-07T05:50:44;19.30;;;6.97;;
69979;SDS011;57318;56.232;43.944;2022-12-07T05:53:12;15.47;;;7.50;;
69979;SDS011;57318;56.232;43.944;2022-12-07T05:55:38;16.80;;;6.10;;
69979;SDS011;57318;56.232;43.944;2022-12-07T05:58:04;16.95;;;8.32;;
69979;SDS011;57318;56.232;43.944;2022-12-07T06:00:48;23.47;;;9.30;;
69979;SDS011;57318;56.232;43.944;2022-12-07T06:03:13;17.02;;;6.13;;
69979;SDS011;57318;56.232;43.944;2022-12-07T06:05:39;16.08;;;7.00;;
69979;SDS011;57318;56.232;43.944;2022-12-07T06:08:05;11.90;;;5.53;;
69979;SDS011;57318;56.232;43.944;2022-12-07T06:10:30;16.25;;;6.47;;
69979;SDS011;57318;56.232;43.944;2022-12-07T06:12:56;22.10;;;6.72;;
69979;SDS011;57318;56.232;43.944;2022-12-07T06:15:22;18.70;;;6.90;;
69979;SDS011;57318;56.232;43.944;2022-12-07T06:17:48;13.90;;;6.30;;
69979;SDS011;57318;56.232;43.944;2022-12-07T06:20:13;15.55;;;7.15;;
69979;SDS011;57318;56.232;43.944;2022-12-07T06:22:40;10.73;;;4.57;;
69979;SDS011;57318;56.232;43.944;2022-12-07T06:25:05;16.20;;;6.78;;
69979;SDS011;57318;56.232;43.944;2022-12-07T06:29:57;12.70;;;5.77;;
69979;SDS011;57318;56.232;43.944;2022-12-07T06:32:24;13.00;;;5.97;;
69979;SDS011;57318;56.232;43.944;2022-12-07T06:34:49;15.35;;;7.15;;
69979;SDS011;57318;56.232;43.944;2022-12-07T06:37:15;15.60;;;6.72;;
69979;SDS011;57318;56.232;43.944;2022-12-07T06:39:40;12.35;;;6.15;;
69979;SDS011;57318;56.232;43.944;2022-12-07T06:42:06;13.07;;;5.63;;
69979;SDS011;57318;56.232;43.944;2022-12-07T06:44:32;17.03;;;5.97;;
69979;SDS011;57318;56.232;43.944;2022-12-07T06:46:58;14.70;;;6.35;;
69979;SDS011;57318;56.232;43.944;2022-12-07T06:49:23;9.43;;;4.90;;
69979;SDS011;57318;56.232;43.944;2022-12-07T06:51:49;14.60;;;7.00;;
69979;SDS011;57318;56.232;43.944;2022-12-07T06:54:15;15.67;;;6.13;;
69979;SDS011;57318;56.232;43.944;2022-12-07T06:56:41;11.35;;;5.78;;
69979;SDS011;57318;56.232;43.944;2022-12-07T06:59:06;14.70;;;7.35;;
69979;SDS011;57318;56.232;43.944;2022-12-07T07:01:33;14.45;;;6.38;;
69979;SDS011;57318;56.232;43.944;2022-12-07T07:04:00;15.70;;;7.78;;
69979;SDS011;57318;56.232;43.944;2022-12-07T07:06:27;11.02;;;4.53;;
69979;SDS011;57318;56.232;43.944;2022-12-07T07:08:52;15.80;;;5.87;;
69979;SDS011;57318;56.232;43.944;2022-12-07T07:11:18;12.15;;;6.03;;
69979;SDS011;57318;56.232;43.944;2022-12-07T07:13:44;13.07;;;6.43;;
69979;SDS011;57318;56.232;43.944;2022-12-07T07:16:10;11.10;;;5.25;;
69979;SDS011;57318;56.232;43.944;2022-12-07T07:18:36;13.83;;;6.27;;
69979;SDS011;57318;56.232;43.944;2022-12-07T07:21:02;14.75;;;6.25;;
69979;SDS011;57318;56.232;43.944;2022-12-07T07:23:28;13.38;;;5.85;;
69979;SDS011;57318;56.232;43.944;2022-12-07T07:25:54;13.82;;;6.38;;
69979;SDS011;57318;56.232;43.944;2022-12-07T07:28:19;14.30;;;5.87;;
69979;SDS011;57318;56.232;43.944;2022-12-07T07:30:45;15.70;;;5.97;;
69979;SDS011;57318;56.232;43.944;2022-12-07T07:33:11;16.40;;;7.70;;
69979;SDS011;57318;56.232;43.944;2022-12-07T07:35:37;14.93;;;6.25;;
69979;SDS011;57318;56.232;43.944;2022-12-07T07:38:04;13.85;;;6.32;;
69979;SDS011;57318;56.232;43.944;2022-12-07T07:40:30;14.05;;;6.10;;
69979;SDS011;57318;56.232;43.944;2022-12-07T07:42:56;15.30;;;6.93;;
69979;SDS011;57318;56.232;43.944;2022-12-07T07:45:23;13.40;;;6.60;;
69979;SDS011;57318;56.232;43.944;2022-12-07T07:47:50;15.45;;;6.10;;
69979;SDS011;57318;56.232;43.944;2022-12-07T07:50:16;14.65;;;5.90;;
69979;SDS011;57318;56.232;43.944;2022-12-07T07:52:42;13.20;;;5.78;;
69979;SDS011;57318;56.232;43.944;2022-12-07T07:55:08;12.50;;;6.75;;
69979;SDS011;57318;56.232;43.944;2022-12-07T07:57:38;10.40;;;5.27;;
69979;SDS011;57318;56.232;43.944;2022-12-07T08:00:06;11.00;;;5.60;;
69979;SDS011;57318;56.232;43.944;2022-12-07T08:02:33;15.77;;;6.53;;
69979;SDS011;57318;56.232;43.944;2022-12-07T08:04:59;12.63;;;6.07;;
69979;SDS011;57318;56.232;43.944;2022-12-07T08:07:24;16.33;;;6.87;;
69979;SDS011;57318;56.232;43.944;2022-12-07T08:09:50;15.53;;;7.10;;
69979;SDS011;57318;56.232;43.944;2022-12-07T08:12:16;13.02;;;5.72;;
69979;SDS011;57318;56.232;43.944;2022-12-07T08:14:41;15.50;;;6.63;;
69979;SDS011;57318;56.232;43.944;2022-12-07T08:17:07;14.33;;;6.47;;
69979;SDS011;57318;56.232;43.944;2022-12-07T08:19:33;15.87;;;7.53;;
69979;SDS011;57318;56.232;43.944;2022-12-07T08:21:58;14.00;;;6.90;;
69979;SDS011;57318;56.232;43.944;2022-12-07T08:24:24;11.90;;;5.67;;
69979;SDS011;57318;56.232;43.944;2022-12-07T08:26:50;12.38;;;6.50;;
69979;SDS011;57318;56.232;43.944;2022-12-07T08:29:16;14.55;;;7.60;;
69979;SDS011;57318;56.232;43.944;2022-12-07T08:31:41;12.53;;;6.30;;
69979;SDS011;57318;56.232;43.944;2022-12-07T08:34:07;13.60;;;6.47;;
69979;SDS011;57318;56.232;43.944;2022-12-07T08:36:35;12.85;;;6.40;;
69979;SDS011;57318;56.232;43.944;2022-12-07T08:41:27;12.68;;;7.00;;
69979;SDS011;57318;56.232;43.944;2022-12-07T08:43:52;15.30;;;6.80;;
69979;SDS011;57318;56.232;43.944;2022-12-07T08:48:47;13.55;;;6.85;;
69979;SDS011;57318;56.232;43.944;2022-12-07T08:51:17;14.15;;;6.18;;
69979;SDS011;57318;56.232;43.944;2022-12-07T08:53:42;11.67;;;5.37;;
69979;SDS011;57318;56.232;43.944;2022-12-07T08:56:08;16.45;;;6.20;;
69979;SDS011;57318;56.232;43.944;2022-12-07T08:58:34;15.03;;;6.90;;
69979;SDS011;57318;56.232;43.944;2022-12-07T09:01:01;15.25;;;7.57;;
69979;SDS011;57318;56.232;43.944;2022-12-07T09:03:26;15.17;;;6.80;;
69979;SDS011;57318;56.232;43.944;2022-12-07T09:05:52;11.30;;;6.33;;
69979;SDS011;57318;56.232;43.944;2022-12-07T09:08:19;14.45;;;6.53;;
69979;SDS011;57318;56.232;43.944;2022-12-07T09:10:46;11.55;;;6.55;;
69979;SDS011;57318;56.232;43.944;2022-12-07T09:13:12;14.13;;;6.47;;
69979;SDS011;57318;56.232;43.944;2022-12-07T09:15:38;12.33;;;5.83;;
69979;SDS011;57318;56.232;43.944;2022-12-07T09:18:04;14.05;;;5.88;;
69979;SDS011;57318;56.232;43.944;2022-12-07T09:20:30;11.80;;;5.72;;
69979;SDS011;57318;56.232;43.944;2022-12-07T09:22:56;14.70;;;6.57;;
69979;SDS011;57318;56.232;43.944;2022-12-07T09:25:21;12.93;;;6.90;;
69979;SDS011;57318;56.232;43.944;2022-12-07T09:27:47;12.30;;;6.33;;
69979;SDS011;57318;56.232;43.944;2022-12-07T09:30:13;12.73;;;7.03;;
69979;SDS011;57318;56.232;43.944;2022-12-07T09:32:38;14.83;;;6.63;;
69979;SDS011;57318;56.232;43.944;2022-12-07T09:35:04;12.50;;;6.23;;
69979;SDS011;57318;56.232;43.944;2022-12-07T09:37:30;13.57;;;5.93;;
69979;SDS011;57318;56.232;43.944;2022-12-07T09:40:00;10.27;;;6.28;;
69979;SDS011;57318;56.232;43.944;2022-12-07T09:42:31;12.48;;;6.28;;
69979;SDS011;57318;56.232;43.944;2022-12-07T09:45:01;11.05;;;6.18;;
69979;SDS011;57318;56.232;43.944;2022-12-07T09:47:29;10.00;;;5.60;;
69979;SDS011;57318;56.232;43.944;2022-12-07T09:49:55;11.80;;;6.33;;
69979;SDS011;57318;56.232;43.944;2022-12-07T09:52:31;12.30;;;5.40;;
69979;SDS011;57318;56.232;43.944;2022-12-07T09:54:57;14.20;;;7.22;;
69979;SDS011;57318;56.232;43.944;2022-12-07T09:57:27;9.97;;;5.40;;
69979;SDS011;57318;56.232;43.944;2022-12-07T10:00:00;7.95;;;5.22;;
69979;SDS011;57318;56.232;43.944;2022-12-07T10:02:37;9.90;;;5.20;;
69979;SDS011;57318;56.232;43.944;2022-12-07T10:05:09;8.13;;;5.22;;
69979;SDS011;57318;56.232;43.944;2022-12-07T10:07:47;11.77;;;6.18;;
69979;SDS011;57318;56.232;43.944;2022-12-07T10:10:17;8.43;;;4.43;;
69979;SDS011;57318;56.232;43.944;2022-12-07T10:12:53;11.20;;;5.75;;
69979;SDS011;57318;56.232;43.944;2022-12-07T10:15:21;13.05;;;6.22;;
69979;SDS011;57318;56.232;43.944;2022-12-07T10:17:47;11.48;;;6.55;;
69979;SDS011;57318;56.232;43.944;2022-12-07T10:22:55;12.90;;;7.20;;
69979;SDS011;57318;56.232;43.944;2022-12-07T10:25:21;12.60;;;6.63;;
69979;SDS011;57318;56.232;43.944;2022-12-07T10:28:09;10.90;;;5.57;;
69979;SDS011;57318;56.232;43.944;2022-12-07T10:33:32;14.18;;;6.15;;
69979;SDS011;57318;56.232;43.944;2022-12-07T10:36:19;11.52;;;5.40;;
69979;SDS011;57318;56.232;43.944;2022-12-07T10:38:59;11.70;;;5.72;;
69979;SDS011;57318;56.232;43.944;2022-12-07T10:41:25;10.65;;;5.72;;
69979;SDS011;57318;56.232;43.944;2022-12-07T10:43:51;11.47;;;6.07;;
69979;SDS011;57318;56.232;43.944;2022-12-07T10:55:07;14.95;;;5.53;;
69979;SDS011;57318;56.232;43.944;2022-12-07T11:14:59;13.05;;;5.75;;
69979;SDS011;57318;56.232;43.944;2022-12-07T11:20:56;13.05;;;6.30;;
69979;SDS011;57318;56.232;43.944;2022-12-07T11:35:02;16.97;;;7.57;;
69979;SDS011;57318;56.232;43.944;2022-12-07T11:37:34;11.98;;;5.97;;
69979;SDS011;57318;56.232;43.944;2022-12-07T11:42:42;15.73;;;7.20;;
69979;SDS011;57318;56.232;43.944;2022-12-07T11:45:32;15.43;;;6.97;;
69979;SDS011;57318;56.232;43.944;2022-12-07T12:06:37;17.33;;;7.43;;
69979;SDS011;57318;56.232;43.944;2022-12-07T12:09:16;17.17;;;7.47;;
69979;SDS011;57318;56.232;43.944;2022-12-07T12:17:21;23.00;;;8.07;;
69979;SDS011;57318;56.232;43.944;2022-12-07T12:20:14;16.13;;;6.68;;
69979;SDS011;57318;56.232;43.944;2022-12-07T12:22:45;17.67;;;7.33;;
69979;SDS011;57318;56.232;43.944;2022-12-07T12:31:15;21.17;;;7.83;;
69979;SDS011;57318;56.232;43.944;2022-12-07T12:33:58;26.00;;;9.97;;
69979;SDS011;57318;56.232;43.944;2022-12-07T12:36:26;21.93;;;8.03;;
69979;SDS011;57318;56.232;43.944;2022-12-07T12:42:05;25.67;;;8.63;;
69979;SDS011;57318;56.232;43.944;2022-12-07T12:46:58;14.93;;;8.37;;
69979;SDS011;57318;56.232;43.944;2022-12-07T12:57:33;22.92;;;8.75;;
69979;SDS011;57318;56.232;43.944;2022-12-07T13:00:01;21.47;;;7.50;;
69979;SDS011;57318;56.232;43.944;2022-12-07T13:05:23;19.77;;;8.63;;
69979;SDS011;57318;56.232;43.944;2022-12-07T13:12:59;23.40;;;9.33;;
69979;SDS011;57318;56.232;43.944;2022-12-07T13:15:38;20.87;;;8.17;;
69979;SDS011;57318;56.232;43.944;2022-12-07T13:28:41;36.50;;;12.63;;
69979;SDS011;57318;56.232;43.944;2022-12-07T13:31:24;25.63;;;11.40;;
69979;SDS011;57318;56.232;43.944;2022-12-07T13:33:56;32.63;;;11.93;;
69979;SDS011;57318;56.232;43.944;2022-12-07T13:36:37;28.40;;;9.87;;
69979;SDS011;57318;56.232;43.944;2022-12-07T13:41:41;27.40;;;10.47;;
69979;SDS011;57318;56.232;43.944;2022-12-07T13:44:11;27.27;;;10.40;;
69979;SDS011;57318;56.232;43.944;2022-12-07T13:49:24;19.90;;;8.63;;
69979;SDS011;57318;56.232;43.944;2022-12-07T13:51:52;25.37;;;10.53;;
69979;SDS011;57318;56.232;43.944;2022-12-07T13:54:19;25.47;;;9.87;;
69979;SDS011;57318;56.232;43.944;2022-12-07T13:59:17;21.43;;;9.13;;
69979;SDS011;57318;56.232;43.944;2022-12-07T14:01:45;22.27;;;9.00;;
69979;SDS011;57318;56.232;43.944;2022-12-07T14:04:17;28.80;;;10.50;;
69979;SDS011;57318;56.232;43.944;2022-12-07T14:06:49;22.27;;;8.37;;
69979;SDS011;57318;56.232;43.944;2022-12-07T14:09:17;26.23;;;10.37;;
69979;SDS011;57318;56.232;43.944;2022-12-07T14:11:44;24.67;;;10.40;;
69979;SDS011;57318;56.232;43.944;2022-12-07T14:14:11;24.07;;;9.53;;
69979;SDS011;57318;56.232;43.944;2022-12-07T14:16:40;26.30;;;11.03;;
69979;SDS011;57318;56.232;43.944;2022-12-07T14:19:39;20.13;;;7.57;;
69979;SDS011;57318;56.232;43.944;2022-12-07T14:22:17;23.03;;;10.13;;
69979;SDS011;57318;56.232;43.944;2022-12-07T14:24:46;33.50;;;11.77;;
69979;SDS011;57318;56.232;43.944;2022-12-07T14:27:21;21.00;;;8.73;;
69979;SDS011;57318;56.232;43.944;2022-12-07T14:29:50;25.50;;;9.87;;
69979;SDS011;57318;56.232;43.944;2022-12-07T14:32:24;30.98;;;12.60;;
69979;SDS011;57318;56.232;43.944;2022-12-07T14:34:55;22.90;;;9.17;;
69979;SDS011;57318;56.232;43.944;2022-12-07T14:37:21;25.87;;;10.50;;
69979;SDS011;57318;56.232;43.944;2022-12-07T14:39:46;23.45;;;9.38;;
69979;SDS011;57318;56.232;43.944;2022-12-07T14:42:12;24.70;;;10.02;;
69979;SDS011;57318;56.232;43.944;2022-12-07T14:44:37;23.05;;;10.90;;
69979;SDS011;57318;56.232;43.944;2022-12-07T14:47:03;27.30;;;9.88;;
69979;SDS011;57318;56.232;43.944;2022-12-07T14:49:29;20.08;;;9.40;;
69979;SDS011;57318;56.232;43.944;2022-12-07T14:51:54;23.50;;;9.10;;
69979;SDS011;57318;56.232;43.944;2022-12-07T14:54:20;19.48;;;9.10;;
69979;SDS011;57318;56.232;43.944;2022-12-07T14:56:51;21.70;;;8.37;;
69979;SDS011;57318;56.232;43.944;2022-12-07T14:59:17;21.92;;;7.50;;
69979;SDS011;57318;56.232;43.944;2022-12-07T15:01:43;23.13;;;9.73;;
69979;SDS011;57318;56.232;43.944;2022-12-07T15:04:09;21.08;;;9.75;;
69979;SDS011;57318;56.232;43.944;2022-12-07T15:06:35;24.05;;;7.78;;
69979;SDS011;57318;56.232;43.944;2022-12-07T15:09:00;21.70;;;9.20;;
69979;SDS011;57318;56.232;43.944;2022-12-07T15:11:26;21.10;;;9.48;;
69979;SDS011;57318;56.232;43.944;2022-12-07T15:13:52;19.63;;;8.35;;
69979;SDS011;57318;56.232;43.944;2022-12-07T15:16:33;21.50;;;9.47;;
69979;SDS011;57318;56.232;43.944;2022-12-07T15:18:59;21.87;;;8.77;;
69979;SDS011;57318;56.232;43.944;2022-12-07T15:21:25;19.55;;;8.02;;
69979;SDS011;57318;56.232;43.944;2022-12-07T15:23:50;21.35;;;7.82;;
69979;SDS011;57318;56.232;43.944;2022-12-07T15:26:16;22.70;;;9.02;;
69979;SDS011;57318;56.232;43.944;2022-12-07T15:28:42;18.80;;;8.52;;
69979;SDS011;57318;56.232;43.944;2022-12-07T15:31:11;21.27;;;8.48;;
69979;SDS011;57318;56.232;43.944;2022-12-07T15:33:41;26.40;;;9.20;;
69979;SDS011;57318;56.232;43.944;2022-12-07T15:38:33;23.73;;;8.20;;
69979;SDS011;57318;56.232;43.944;2022-12-07T15:41:00;25.50;;;9.50;;
69979;SDS011;57318;56.232;43.944;2022-12-07T15:43:25;20.33;;;8.98;;
69979;SDS011;57318;56.232;43.944;2022-12-07T15:46:09;21.83;;;10.03;;
69979;SDS011;57318;56.232;43.944;2022-12-07T15:48:35;17.77;;;8.32;;
69979;SDS011;57318;56.232;43.944;2022-12-07T15:51:01;22.73;;;10.50;;
69979;SDS011;57318;56.232;43.944;2022-12-07T15:53:28;23.53;;;9.63;;
69979;SDS011;57318;56.232;43.944;2022-12-07T15:55:54;24.45;;;10.00;;
69979;SDS011;57318;56.232;43.944;2022-12-07T15:58:19;36.55;;;11.63;;
69979;SDS011;57318;56.232;43.944;2022-12-07T16:00:45;22.17;;;7.00;;
69979;SDS011;57318;56.232;43.944;2022-12-07T16:03:12;25.70;;;10.53;;
69979;SDS011;57318;56.232;43.944;2022-12-07T16:05:37;26.23;;;9.77;;
69979;SDS011;57318;56.232;43.944;2022-12-07T16:08:03;27.25;;;10.40;;
69979;SDS011;57318;56.232;43.944;2022-12-07T16:10:29;24.70;;;9.77;;
69979;SDS011;57318;56.232;43.944;2022-12-07T16:12:54;34.42;;;12.25;;
69979;SDS011;57318;56.232;43.944;2022-12-07T16:15:20;15.07;;;6.72;;
69979;SDS011;57318;56.232;43.944;2022-12-07T16:17:46;21.67;;;8.65;;
69979;SDS011;57318;56.232;43.944;2022-12-07T16:20:11;24.65;;;8.48;;
69979;SDS011;57318;56.232;43.944;2022-12-07T16:22:37;28.42;;;11.35;;
69979;SDS011;57318;56.232;43.944;2022-12-07T16:25:02;29.42;;;11.90;;
69979;SDS011;57318;56.232;43.944;2022-12-07T16:29:54;29.47;;;11.83;;
69979;SDS011;57318;56.232;43.944;2022-12-07T16:32:19;40.75;;;13.82;;
69979;SDS011;57318;56.232;43.944;2022-12-07T16:34:45;27.23;;;10.35;;
69979;SDS011;57318;56.232;43.944;2022-12-07T16:37:11;29.08;;;13.60;;
69979;SDS011;57318;56.232;43.944;2022-12-07T16:39:36;33.08;;;12.20;;
69979;SDS011;57318;56.232;43.944;2022-12-07T16:42:02;29.70;;;12.35;;
69979;SDS011;57318;56.232;43.944;2022-12-07T16:44:28;26.00;;;8.75;;
69979;SDS011;57318;56.232;43.944;2022-12-07T16:46:55;23.63;;;10.97;;
69979;SDS011;57318;56.232;43.944;2022-12-07T16:49:21;38.88;;;15.07;;
69979;SDS011;57318;56.232;43.944;2022-12-07T16:51:49;25.37;;;8.87;;
69979;SDS011;57318;56.232;43.944;2022-12-07T16:54:15;36.47;;;13.47;;
69979;SDS011;57318;56.232;43.944;2022-12-07T16:56:41;33.72;;;13.10;;
69979;SDS011;57318;56.232;43.944;2022-12-07T16:59:07;31.30;;;12.60;;
69979;SDS011;57318;56.232;43.944;2022-12-07T17:01:33;24.08;;;10.15;;
69979;SDS011;57318;56.232;43.944;2022-12-07T17:03:59;26.27;;;11.40;;
69979;SDS011;57318;56.232;43.944;2022-12-07T17:06:26;30.58;;;12.18;;
69979;SDS011;57318;56.232;43.944;2022-12-07T17:08:53;19.87;;;8.77;;
69979;SDS011;57318;56.232;43.944;2022-12-07T17:11:20;27.90;;;10.13;;
69979;SDS011;57318;56.232;43.944;2022-12-07T17:13:51;30.00;;;10.77;;
69979;SDS011;57318;56.232;43.944;2022-12-07T17:16:39;27.60;;;11.00;;
69979;SDS011;57318;56.232;43.944;2022-12-07T17:19:05;26.10;;;10.07;;
69979;SDS011;57318;56.232;43.944;2022-12-07T17:21:42;31.52;;;11.55;;
69979;SDS011;57318;56.232;43.944;2022-12-07T17:24:12;30.20;;;10.70;;